createdAt,value
2017-04-06T00:00:31.500Z,9.10
2017-04-06T00:01:29.996Z,9.10
2017-04-06T00:02:29.268Z,9.10
2017-04-06T00:03:27.856Z,9.20
2017-04-06T00:04:26.504Z,9.20
2017-04-06T00:05:24.996Z,9.20
2017-04-06T00:06:23.573Z,9.20
2017-04-06T00:07:22.114Z,9.20
2017-04-06T00:08:21.306Z,9.20
2017-04-06T00:09:19.807Z,9.20
2017-04-06T00:10:18.264Z,9.20
2017-04-06T00:11:16.937Z,9.30
2017-04-06T00:12:15.605Z,9.30
2017-04-06T00:13:14.276Z,9.30
2017-04-06T00:14:12.776Z,9.30
2017-04-06T00:15:11.700Z,9.30
2017-04-06T00:16:10.189Z,9.30
2017-04-06T00:17:08.710Z,9.30
2017-04-06T00:18:07.176Z,9.40
2017-04-06T00:19:05.839Z,9.30
2017-04-06T00:20:04.521Z,9.30
2017-04-06T00:21:03.037Z,9.40
2017-04-06T00:22:01.501Z,9.40
2017-04-06T00:23:00.757Z,9.40
2017-04-06T00:23:59.199Z,9.40
2017-04-06T00:24:58.401Z,9.40
2017-04-06T00:25:56.834Z,9.40
2017-04-06T00:26:55.357Z,9.40
2017-04-06T00:27:53.868Z,9.40
2017-04-06T00:28:52.440Z,9.40
2017-04-06T00:29:51.152Z,9.40
2017-04-06T00:30:49.745Z,9.40
2017-04-06T00:31:48.336Z,9.40
2017-04-06T00:32:46.784Z,9.40
2017-04-06T00:33:45.131Z,9.40
2017-04-06T00:34:43.728Z,9.40
2017-04-06T00:35:42.249Z,9.40
2017-04-06T00:36:40.778Z,9.40
2017-04-06T00:37:39.226Z,9.40
2017-04-06T00:38:37.679Z,9.40
2017-04-06T00:39:36.197Z,9.40
2017-04-06T00:40:35.469Z,9.30
2017-04-06T00:41:33.960Z,9.30
2017-04-06T00:42:32.447Z,9.30
2017-04-06T00:43:31.753Z,9.30
2017-04-06T00:44:30.931Z,9.30
2017-04-06T00:45:30.616Z,9.30
2017-04-06T00:46:29.948Z,9.30
2017-04-06T00:47:28.641Z,9.30
2017-04-06T00:48:27.285Z,9.40
2017-04-06T00:49:25.843Z,9.40
2017-04-06T00:50:24.293Z,9.40
2017-04-06T00:51:22.800Z,9.40
2017-04-06T00:53:20.640Z,9.40
2017-04-06T00:54:19.225Z,9.40
2017-04-06T00:55:18.434Z,9.40
2017-04-06T00:56:17.580Z,9.40
2017-04-06T00:57:16.140Z,9.40
2017-04-06T00:58:14.643Z,9.40
2017-04-06T00:59:13.152Z,9.40
2017-04-06T01:00:12.331Z,9.40
2017-04-06T01:01:10.753Z,9.40
2017-04-06T01:02:10.121Z,9.40
2017-04-06T01:03:08.581Z,9.40
2017-04-06T01:04:07.072Z,9.40
2017-04-06T01:05:05.704Z,9.40
2017-04-06T01:06:05.006Z,9.40
2017-04-06T01:07:03.404Z,9.40
2017-04-06T01:08:01.724Z,9.40
2017-04-06T01:08:59.962Z,9.40
2017-04-06T01:09:58.263Z,9.40
2017-04-06T01:10:56.788Z,9.40
2017-04-06T01:11:55.074Z,9.40
2017-04-06T01:12:54.115Z,9.30
2017-04-06T01:13:52.367Z,9.40
2017-04-06T01:14:50.688Z,9.40
2017-04-06T01:15:49.052Z,9.40
2017-04-06T01:16:47.312Z,9.40
2017-04-06T01:17:45.620Z,9.30
2017-04-06T01:18:43.864Z,9.30
2017-04-06T01:19:42.092Z,9.30
2017-04-06T01:20:40.336Z,9.30
2017-04-06T01:21:39.350Z,9.30
2017-04-06T01:22:37.760Z,9.30
2017-04-06T01:23:36.076Z,9.30
2017-04-06T01:24:34.320Z,9.30
2017-04-06T01:25:32.594Z,9.30
2017-04-06T01:26:30.843Z,9.30
2017-04-06T01:27:29.909Z,9.30
2017-04-06T01:28:28.423Z,9.30
2017-04-06T01:30:25.508Z,9.30
2017-04-06T01:31:23.791Z,9.30
2017-04-06T01:32:22.220Z,9.30
2017-04-06T01:33:21.056Z,9.30
2017-04-06T01:34:19.675Z,9.30
2017-04-06T01:35:17.966Z,9.30
2017-04-06T01:36:16.261Z,9.30
2017-04-06T01:37:14.531Z,9.30
2017-04-06T01:38:12.771Z,9.30
2017-04-06T01:39:11.018Z,9.30
2017-04-06T01:40:09.284Z,9.30
2017-04-06T01:41:07.549Z,9.30
2017-04-06T01:42:05.798Z,9.20
2017-04-06T01:43:04.082Z,9.30
2017-04-06T01:44:02.337Z,9.20
2017-04-06T01:45:00.572Z,9.30
2017-04-06T01:45:59.861Z,9.20
2017-04-06T01:46:58.100Z,9.20
2017-04-06T01:47:56.328Z,9.20
2017-04-06T01:48:54.550Z,9.20
2017-04-06T01:49:53.540Z,9.20
2017-04-06T01:50:52.026Z,9.20
2017-04-06T01:51:50.511Z,9.10
2017-04-06T01:52:48.904Z,9.20
2017-04-06T01:53:47.236Z,9.10
2017-04-06T01:54:45.937Z,9.10
2017-04-06T01:55:44.647Z,9.10
2017-04-06T01:56:44.006Z,9.00
2017-04-06T01:57:42.400Z,9.00
2017-04-06T01:58:40.783Z,9.00
2017-04-06T01:59:39.188Z,9.00
2017-04-06T02:00:37.648Z,9.00
2017-04-06T02:01:36.828Z,9.00
2017-04-06T02:02:35.299Z,9.00
2017-04-06T02:03:34.127Z,9.00
2017-04-06T02:04:32.615Z,8.90
2017-04-06T02:05:31.068Z,8.90
2017-04-06T02:06:29.509Z,8.90
2017-04-06T02:07:28.041Z,8.90
2017-04-06T02:08:26.511Z,8.90
2017-04-06T02:09:24.994Z,8.80
2017-04-06T02:10:24.349Z,8.80
2017-04-06T02:11:22.920Z,8.80
2017-04-06T02:12:21.472Z,8.70
2017-04-06T02:13:20.024Z,8.70
2017-04-06T02:14:18.595Z,8.70
2017-04-06T02:15:17.764Z,8.70
2017-04-06T02:16:17.017Z,8.70
2017-04-06T02:17:15.437Z,8.70
2017-04-06T02:18:13.857Z,8.60
2017-04-06T02:19:12.294Z,8.60
2017-04-06T02:20:10.809Z,8.50
2017-04-06T02:21:09.611Z,8.50
2017-04-06T02:22:08.760Z,8.50
2017-04-06T02:23:07.216Z,8.40
2017-04-06T02:24:05.548Z,8.40
2017-04-06T02:25:04.602Z,8.40
2017-04-06T02:26:03.013Z,8.40
2017-04-06T02:27:02.084Z,8.30
2017-04-06T02:28:00.464Z,8.30
2017-04-06T02:28:59.500Z,8.30
2017-04-06T02:29:57.811Z,8.30
2017-04-06T02:30:56.136Z,8.20
2017-04-06T02:31:54.501Z,8.20
2017-04-06T02:32:52.804Z,8.10
2017-04-06T02:33:51.164Z,8.10
2017-04-06T02:34:49.508Z,8.10
2017-04-06T02:35:47.920Z,8.00
2017-04-06T02:36:46.312Z,8.00
2017-04-06T02:37:44.697Z,8.00
2017-04-06T02:38:43.296Z,7.90
2017-04-06T02:39:41.718Z,7.90
2017-04-06T02:40:40.812Z,7.90
2017-04-06T02:41:39.213Z,7.90
2017-04-06T02:42:37.558Z,7.80
2017-04-06T02:43:35.927Z,7.80
2017-04-06T02:44:34.304Z,7.80
2017-04-06T02:45:32.741Z,7.70
2017-04-06T02:46:31.066Z,7.70
2017-04-06T02:47:29.416Z,7.70
2017-04-06T02:48:28.605Z,7.60
2017-04-06T02:49:27.056Z,7.60
2017-04-06T02:50:25.453Z,7.60
2017-04-06T02:51:23.772Z,7.50
2017-04-06T02:52:22.844Z,7.50
2017-04-06T02:53:21.958Z,7.50
2017-04-06T02:54:20.320Z,7.40
2017-04-06T02:55:19.344Z,7.40
2017-04-06T02:56:18.008Z,7.40
2017-04-06T02:57:16.336Z,7.30
2017-04-06T02:58:13.886Z,7.30
2017-04-06T02:59:12.920Z,7.20
2017-04-06T03:00:11.268Z,7.20
2017-04-06T03:01:10.413Z,7.20
2017-04-06T03:02:08.764Z,7.20
2017-04-06T03:03:07.060Z,7.10
2017-04-06T03:04:06.172Z,7.10
2017-04-06T03:05:04.545Z,7.10
2017-04-06T03:06:02.937Z,7.10
2017-04-06T03:07:01.308Z,7.00
2017-04-06T03:07:59.612Z,7.00
2017-04-06T03:08:57.875Z,7.00
2017-04-06T03:09:56.188Z,7.00
2017-04-06T03:10:54.472Z,7.00
2017-04-06T03:11:52.784Z,7.00
2017-04-06T03:12:51.080Z,7.00
2017-04-06T03:13:49.572Z,7.00
2017-04-06T03:14:47.885Z,7.00
2017-04-06T03:15:46.172Z,7.00
2017-04-06T03:16:45.264Z,7.00
2017-04-06T03:17:44.268Z,7.00
2017-04-06T03:18:42.563Z,7.10
2017-04-06T03:19:40.885Z,7.10
2017-04-06T03:20:39.185Z,7.10
2017-04-06T03:21:37.523Z,7.10
2017-04-06T03:22:35.808Z,7.20
2017-04-06T03:23:34.124Z,7.20
2017-04-06T03:24:32.469Z,7.20
2017-04-06T03:25:30.874Z,7.30
2017-04-06T03:26:29.146Z,7.30
2017-04-06T03:27:28.148Z,7.30
2017-04-06T03:28:26.476Z,7.40
2017-04-06T03:29:24.866Z,7.40
2017-04-06T03:30:23.269Z,7.40
2017-04-06T03:31:21.841Z,7.40
2017-04-06T03:32:20.166Z,7.50
2017-04-06T03:33:19.205Z,7.50
2017-04-06T03:34:17.532Z,7.50
2017-04-06T03:35:16.569Z,7.50
2017-04-06T03:36:14.844Z,7.60
2017-04-06T03:37:13.214Z,7.60
2017-04-06T03:38:11.504Z,7.60
2017-04-06T03:39:10.804Z,7.70
2017-04-06T03:40:10.016Z,7.70
2017-04-06T03:41:08.332Z,7.70
2017-04-06T03:42:06.622Z,7.70
2017-04-06T03:43:05.789Z,7.70
2017-04-06T03:44:04.084Z,7.80
2017-04-06T03:45:03.112Z,7.80
2017-04-06T03:46:01.400Z,7.80
2017-04-06T03:46:59.685Z,7.80
2017-04-06T03:47:58.680Z,7.80
2017-04-06T03:48:57.284Z,7.90
2017-04-06T03:49:55.521Z,7.90
2017-04-06T03:50:54.516Z,7.90
2017-04-06T03:51:53.565Z,7.90
2017-04-06T03:52:51.816Z,7.90
2017-04-06T03:53:50.140Z,8.00
2017-04-06T03:54:48.470Z,8.00
2017-04-06T03:55:46.768Z,8.00
2017-04-06T03:56:45.064Z,8.00
2017-04-06T03:57:43.350Z,8.00
2017-04-06T03:58:41.682Z,8.10
2017-04-06T03:59:40.008Z,8.10
2017-04-06T04:00:38.316Z,8.00
2017-04-06T04:01:36.645Z,8.10
2017-04-06T04:02:34.964Z,8.10
2017-04-06T04:03:33.248Z,8.10
2017-04-06T04:04:31.520Z,8.10
2017-04-06T04:05:29.796Z,8.10
2017-04-06T04:06:28.412Z,8.10
2017-04-06T04:07:26.767Z,8.10
2017-04-06T04:08:25.843Z,8.10
2017-04-06T04:09:24.208Z,8.10
2017-04-06T04:10:22.504Z,8.10
2017-04-06T04:11:20.828Z,8.20
2017-04-06T04:12:19.199Z,8.10
2017-04-06T04:13:17.477Z,8.10
2017-04-06T04:14:16.543Z,8.20
2017-04-06T04:15:14.910Z,8.20
2017-04-06T04:16:13.204Z,8.20
2017-04-06T04:17:11.536Z,8.20
2017-04-06T04:18:09.893Z,8.20
2017-04-06T04:19:08.413Z,8.20
2017-04-06T04:20:07.460Z,8.20
2017-04-06T04:21:05.801Z,8.20
2017-04-06T04:22:04.189Z,8.20
2017-04-06T04:23:02.520Z,8.20
2017-04-06T04:24:01.136Z,8.20
2017-04-06T04:24:59.517Z,8.20
2017-04-06T04:25:57.874Z,8.20
2017-04-06T04:26:56.321Z,8.20
2017-04-06T04:27:54.724Z,8.20
2017-04-06T04:28:53.033Z,8.20
2017-04-06T04:29:52.285Z,8.20
2017-04-06T04:30:50.638Z,8.20
2017-04-06T04:31:48.993Z,8.20
2017-04-06T04:32:47.378Z,8.20
2017-04-06T04:33:45.683Z,8.20
2017-04-06T04:34:44.029Z,8.20
2017-04-06T04:35:42.388Z,8.20
2017-04-06T04:36:40.688Z,8.20
2017-04-06T04:37:39.772Z,8.20
2017-04-06T04:38:38.142Z,8.30
2017-04-06T04:39:37.313Z,8.20
2017-04-06T04:40:36.411Z,8.30
2017-04-06T04:41:34.963Z,8.30
2017-04-06T04:42:33.319Z,8.30
2017-04-06T04:43:31.672Z,8.30
2017-04-06T04:44:30.056Z,8.30
2017-04-06T04:45:28.480Z,8.30
2017-04-06T04:46:26.880Z,8.30
2017-04-06T04:47:25.264Z,8.30
2017-04-06T04:48:23.660Z,8.30
2017-04-06T04:49:22.736Z,8.20
2017-04-06T04:50:21.083Z,8.30
2017-04-06T04:51:19.436Z,8.30
2017-04-06T04:52:17.824Z,8.30
2017-04-06T04:53:16.282Z,8.30
2017-04-06T04:54:14.689Z,8.30
2017-04-06T04:55:13.019Z,8.30
2017-04-06T04:56:11.333Z,8.30
2017-04-06T04:57:10.400Z,8.30
2017-04-06T04:58:08.780Z,8.30
2017-04-06T04:59:08.220Z,8.30
2017-04-06T05:00:06.593Z,8.30
2017-04-06T05:01:04.973Z,8.30
2017-04-06T05:02:03.328Z,8.30
2017-04-06T05:03:01.756Z,8.30
2017-04-06T05:04:00.096Z,8.30
2017-04-06T05:04:58.450Z,8.30
2017-04-06T05:05:56.748Z,8.30
2017-04-06T05:06:55.141Z,8.30
2017-04-06T05:07:53.550Z,8.30
2017-04-06T05:08:51.917Z,8.30
2017-04-06T05:09:50.201Z,8.30
2017-04-06T05:10:48.547Z,8.30
2017-04-06T05:11:47.624Z,8.30
2017-04-06T05:12:45.928Z,8.30
2017-04-06T05:13:44.286Z,8.30
2017-04-06T05:14:42.598Z,8.30
2017-04-06T05:15:40.995Z,8.30
2017-04-06T05:16:39.682Z,8.40
2017-04-06T05:17:38.014Z,8.30
2017-04-06T05:18:36.325Z,8.30
2017-04-06T05:19:34.593Z,8.30
2017-04-06T05:20:32.976Z,8.30
2017-04-06T05:21:31.296Z,8.30
2017-04-06T05:22:30.318Z,8.30
2017-04-06T05:23:28.596Z,8.30
2017-04-06T05:24:26.899Z,8.30
2017-04-06T05:25:25.956Z,8.30
2017-04-06T05:26:24.244Z,8.30
2017-04-06T05:27:23.293Z,8.30
2017-04-06T05:28:21.696Z,8.30
2017-04-06T05:29:20.007Z,8.30
2017-04-06T05:30:18.324Z,8.30
2017-04-06T05:31:16.625Z,8.30
2017-04-06T05:32:14.991Z,8.30
2017-04-06T05:33:13.266Z,8.30
2017-04-06T05:34:12.544Z,8.30
2017-04-06T05:35:11.608Z,8.30
2017-04-06T05:36:10.710Z,8.30
2017-04-06T05:37:09.084Z,8.30
2017-04-06T05:38:07.461Z,8.30
2017-04-06T05:39:06.522Z,8.30
2017-04-06T05:40:04.817Z,8.30
2017-04-06T05:41:03.940Z,8.30
2017-04-06T05:42:02.188Z,8.30
2017-04-06T05:43:00.509Z,8.30
2017-04-06T05:43:58.805Z,8.30
2017-04-06T05:44:57.824Z,8.30
2017-04-06T05:45:56.213Z,8.30
2017-04-06T05:46:54.505Z,8.30
2017-04-06T05:47:52.828Z,8.30
2017-04-06T05:48:51.118Z,8.30
2017-04-06T05:49:49.456Z,8.30
2017-04-06T05:50:47.786Z,8.30
2017-04-06T05:51:47.052Z,8.30
2017-04-06T05:52:45.389Z,8.40
2017-04-06T05:53:43.716Z,8.40
2017-04-06T05:54:42.025Z,8.40
2017-04-06T05:56:39.264Z,8.40
2017-04-06T05:57:37.625Z,8.40
2017-04-06T05:58:35.904Z,8.40
2017-04-06T05:59:34.252Z,8.40
2017-04-06T06:00:32.596Z,8.40
2017-04-06T06:01:30.962Z,8.40
2017-04-06T06:02:29.301Z,8.40
2017-04-06T06:03:27.660Z,8.40
2017-04-06T06:04:26.045Z,8.40
2017-04-06T06:05:25.459Z,8.40
2017-04-06T06:06:23.811Z,8.40
2017-04-06T06:07:22.183Z,8.40
2017-04-06T06:08:21.342Z,8.40
2017-04-06T06:09:19.985Z,8.40
2017-04-06T06:10:18.360Z,8.40
2017-04-06T06:11:16.691Z,8.40
2017-04-06T06:12:15.736Z,8.40
2017-04-06T06:13:14.017Z,8.40
2017-04-06T06:14:12.456Z,8.40
2017-04-06T06:15:10.769Z,8.40
2017-04-06T06:16:09.100Z,8.40
2017-04-06T06:17:07.415Z,8.40
2017-04-06T06:18:05.768Z,8.40
2017-04-06T06:19:04.042Z,8.40
2017-04-06T06:20:03.133Z,8.40
2017-04-06T06:21:02.212Z,8.40
2017-04-06T06:22:01.364Z,8.40
2017-04-06T06:22:59.767Z,8.40
2017-04-06T06:23:58.816Z,8.40
2017-04-06T06:24:57.149Z,8.40
2017-04-06T06:25:55.467Z,8.40
2017-04-06T06:26:54.082Z,8.50
2017-04-06T06:27:52.445Z,8.50
2017-04-06T06:28:50.777Z,8.50
2017-04-06T06:29:49.081Z,8.50
2017-04-06T06:30:47.372Z,8.50
2017-04-06T06:31:45.703Z,8.50
2017-04-06T06:32:44.804Z,8.50
2017-04-06T06:33:43.153Z,8.60
2017-04-06T06:34:42.196Z,8.60
2017-04-06T06:35:40.468Z,8.60
2017-04-06T06:36:38.868Z,8.60
2017-04-06T06:37:39.024Z,8.60
2017-04-06T06:38:37.340Z,8.70
2017-04-06T06:39:35.677Z,8.70
2017-04-06T06:40:34.032Z,8.70
2017-04-06T06:41:32.355Z,8.70
2017-04-06T06:42:30.650Z,8.70
2017-04-06T06:43:28.968Z,8.70
2017-04-06T06:44:27.697Z,8.80
2017-04-06T06:45:26.049Z,8.80
2017-04-06T06:46:24.408Z,8.70
2017-04-06T06:47:22.738Z,8.80
2017-04-06T06:48:21.093Z,8.80
2017-04-06T06:49:19.458Z,8.80
2017-04-06T06:50:17.836Z,8.80
2017-04-06T06:51:16.281Z,8.90
2017-04-06T06:52:14.617Z,8.90
2017-04-06T06:53:13.681Z,8.90
2017-04-06T06:54:12.017Z,8.90
2017-04-06T06:55:10.349Z,8.90
2017-04-06T06:56:09.644Z,8.90
2017-04-06T06:57:07.960Z,9.00
2017-04-06T06:58:06.256Z,9.00
2017-04-06T06:59:04.625Z,9.00
2017-04-06T07:00:03.721Z,9.00
2017-04-06T07:01:02.766Z,9.00
2017-04-06T07:02:01.108Z,9.10
2017-04-06T07:02:59.485Z,9.10
2017-04-06T07:03:57.837Z,9.20
2017-04-06T07:04:56.185Z,9.20
2017-04-06T07:05:54.500Z,9.20
2017-04-06T07:06:52.816Z,9.20
2017-04-06T07:07:51.431Z,9.20
2017-04-06T07:08:49.764Z,9.30
2017-04-06T07:09:48.093Z,9.30
2017-04-06T07:10:46.392Z,9.30
2017-04-06T07:11:44.744Z,9.30
2017-04-06T07:12:43.800Z,9.30
2017-04-06T07:13:42.896Z,9.30
2017-04-06T07:14:41.227Z,9.30
2017-04-06T07:15:39.805Z,9.40
2017-04-06T07:16:38.288Z,9.40
2017-04-06T07:17:36.636Z,9.40
2017-04-06T07:18:35.005Z,9.40
2017-04-06T07:19:33.680Z,9.40
2017-04-06T07:20:31.992Z,9.40
2017-04-06T07:21:30.356Z,9.50
2017-04-06T07:22:28.761Z,9.50
2017-04-06T07:23:27.832Z,9.50
2017-04-06T07:24:26.928Z,9.50
2017-04-06T07:25:25.300Z,9.60
2017-04-06T07:26:23.608Z,9.60
2017-04-06T07:27:21.957Z,9.60
2017-04-06T07:28:20.300Z,9.60
2017-04-06T07:29:19.372Z,9.70
2017-04-06T07:30:18.793Z,9.70
2017-04-06T07:31:17.337Z,9.70
2017-04-06T07:32:15.693Z,9.70
2017-04-06T07:33:14.924Z,9.70
2017-04-06T07:34:13.266Z,9.80
2017-04-06T07:35:12.349Z,9.80
2017-04-06T07:36:11.382Z,9.80
2017-04-06T07:37:10.108Z,9.80
2017-04-06T07:38:08.417Z,9.80
2017-04-06T07:39:06.752Z,9.90
2017-04-06T07:40:05.876Z,9.90
2017-04-06T07:41:04.253Z,9.90
2017-04-06T07:42:02.617Z,10.00
2017-04-06T07:43:01.641Z,10.00
2017-04-06T07:43:59.904Z,10.00
2017-04-06T07:44:58.171Z,10.00
2017-04-06T07:45:56.466Z,10.10
2017-04-06T07:46:54.760Z,10.10
2017-04-06T07:47:55.164Z,10.10
2017-04-06T07:48:53.740Z,10.10
2017-04-06T07:49:52.040Z,10.10
2017-04-06T07:50:50.434Z,10.20
2017-04-06T07:51:48.772Z,10.20
2017-04-06T07:52:47.056Z,10.20
2017-04-06T07:53:45.532Z,10.20
2017-04-06T07:54:43.944Z,10.20
2017-04-06T07:55:42.336Z,10.20
2017-04-06T07:56:40.676Z,10.20
2017-04-06T07:57:38.995Z,10.30
2017-04-06T07:58:37.624Z,10.30
2017-04-06T07:59:36.200Z,10.30
2017-04-06T08:00:34.624Z,10.30
2017-04-06T08:01:32.952Z,10.30
2017-04-06T08:02:31.332Z,10.30
2017-04-06T08:03:29.612Z,10.30
2017-04-06T08:04:27.933Z,10.30
2017-04-06T08:05:26.296Z,10.30
2017-04-06T08:06:25.305Z,10.30
2017-04-06T08:07:23.738Z,10.30
2017-04-06T08:08:22.137Z,10.30
2017-04-06T08:09:20.469Z,10.30
2017-04-06T08:10:18.758Z,10.30
2017-04-06T08:11:17.081Z,10.20
2017-04-06T08:12:16.193Z,10.20
2017-04-06T08:13:14.573Z,10.20
2017-04-06T08:14:13.685Z,10.20
2017-04-06T08:15:12.048Z,10.20
2017-04-06T08:16:10.405Z,10.20
2017-04-06T08:17:09.441Z,10.20
2017-04-06T08:18:07.752Z,10.20
2017-04-06T08:19:06.052Z,10.20
2017-04-06T08:20:04.337Z,10.20
2017-04-06T08:21:02.724Z,10.20
2017-04-06T08:22:01.047Z,10.20
2017-04-06T08:23:00.103Z,10.20
2017-04-06T08:23:59.109Z,10.30
2017-04-06T08:24:57.392Z,10.30
2017-04-06T08:25:56.012Z,10.30
2017-04-06T08:26:54.308Z,10.30
2017-04-06T08:27:52.611Z,10.30
2017-04-06T08:28:50.969Z,10.30
2017-04-06T08:29:49.348Z,10.30
2017-04-06T08:30:47.626Z,10.30
2017-04-06T08:31:45.983Z,10.30
2017-04-06T08:32:44.264Z,10.30
2017-04-06T08:33:42.568Z,10.30
2017-04-06T08:34:40.860Z,10.30
2017-04-06T08:35:39.188Z,10.30
2017-04-06T08:36:37.453Z,10.30
2017-04-06T08:37:35.748Z,10.40
2017-04-06T08:38:34.080Z,10.40
2017-04-06T08:39:32.389Z,10.40
2017-04-06T08:40:30.686Z,10.50
2017-04-06T08:41:28.980Z,10.50
2017-04-06T08:42:28.077Z,10.50
2017-04-06T08:43:26.420Z,10.50
2017-04-06T08:44:24.711Z,10.50
2017-04-06T08:45:23.095Z,10.60
2017-04-06T08:46:22.169Z,10.60
2017-04-06T08:47:20.452Z,10.60
2017-04-06T08:48:18.736Z,10.60
2017-04-06T08:49:17.071Z,10.70
2017-04-06T08:50:15.342Z,10.70
2017-04-06T08:51:14.621Z,10.70
2017-04-06T08:52:12.924Z,10.70
2017-04-06T08:53:11.185Z,10.80
2017-04-06T08:54:09.450Z,10.80
2017-04-06T08:55:07.765Z,10.80
2017-04-06T08:56:06.109Z,10.80
2017-04-06T08:57:04.457Z,10.80
2017-04-06T08:58:02.765Z,10.80
2017-04-06T08:59:01.092Z,10.90
2017-04-06T08:59:59.416Z,10.90
2017-04-06T09:00:57.702Z,10.90
2017-04-06T09:01:56.740Z,10.90
2017-04-06T09:02:55.100Z,10.90
2017-04-06T09:03:53.372Z,10.90
2017-04-06T09:04:51.730Z,10.90
2017-04-06T09:05:50.080Z,10.90
2017-04-06T09:06:48.440Z,10.90
2017-04-06T09:07:46.789Z,10.90
2017-04-06T09:08:45.850Z,10.90
2017-04-06T09:09:44.232Z,10.90
2017-04-06T09:10:42.837Z,10.80
2017-04-06T09:11:41.928Z,10.80
2017-04-06T09:12:40.292Z,10.80
2017-04-06T09:13:39.076Z,10.80
2017-04-06T09:14:37.545Z,10.80
2017-04-06T09:15:35.929Z,10.80
2017-04-06T09:16:34.273Z,10.80
2017-04-06T09:17:32.648Z,10.80
2017-04-06T09:18:31.024Z,10.80
2017-04-06T09:19:29.376Z,10.80
2017-04-06T09:20:28.544Z,10.80
2017-04-06T09:21:27.045Z,10.80
2017-04-06T09:22:25.509Z,10.90
2017-04-06T09:23:23.988Z,10.90
2017-04-06T09:24:22.358Z,10.90
2017-04-06T09:25:21.265Z,10.90
2017-04-06T09:26:19.683Z,11.00
2017-04-06T09:27:18.013Z,11.00
2017-04-06T09:28:16.365Z,11.00
2017-04-06T09:29:14.740Z,11.00
2017-04-06T09:30:13.114Z,11.00
2017-04-06T09:31:11.472Z,11.10
2017-04-06T09:32:09.859Z,11.10
2017-04-06T09:33:08.356Z,11.10
2017-04-06T09:34:07.514Z,11.10
2017-04-06T09:35:05.892Z,11.20
2017-04-06T09:36:04.230Z,11.20
2017-04-06T09:37:02.952Z,11.30
2017-04-06T09:38:01.270Z,11.30
2017-04-06T09:38:59.709Z,11.30
2017-04-06T09:39:58.032Z,11.20
2017-04-06T09:40:56.367Z,11.20
2017-04-06T09:41:54.692Z,11.20
2017-04-06T09:42:52.975Z,11.20
2017-04-06T09:43:51.980Z,11.20
2017-04-06T09:44:51.012Z,11.20
2017-04-06T09:45:49.370Z,11.20
2017-04-06T09:46:47.676Z,11.20
2017-04-06T09:47:46.005Z,11.20
2017-04-06T09:48:44.344Z,11.20
2017-04-06T09:49:42.688Z,11.20
2017-04-06T09:50:41.052Z,11.20
2017-04-06T09:51:40.165Z,11.20
2017-04-06T09:52:38.532Z,11.20
2017-04-06T09:53:36.935Z,11.30
2017-04-06T09:54:35.333Z,11.30
2017-04-06T09:55:33.720Z,11.30
2017-04-06T09:56:32.821Z,11.30
2017-04-06T09:57:31.213Z,11.30
2017-04-06T09:58:29.962Z,11.30
2017-04-06T09:59:28.305Z,11.40
2017-04-06T10:00:26.632Z,11.40
2017-04-06T10:01:25.128Z,11.40
2017-04-06T10:02:24.788Z,11.40
2017-04-06T10:03:23.112Z,11.40
2017-04-06T10:04:21.514Z,11.50
2017-04-06T10:05:20.616Z,11.50
2017-04-06T10:06:18.977Z,11.50
2017-04-06T10:07:17.286Z,11.60
2017-04-06T10:08:15.801Z,11.60
2017-04-06T10:09:14.932Z,11.60
2017-04-06T10:10:13.556Z,11.70
2017-04-06T10:11:12.567Z,11.70
2017-04-06T10:12:11.012Z,11.70
2017-04-06T10:13:09.277Z,11.70
2017-04-06T10:14:08.013Z,11.70
2017-04-06T10:15:06.289Z,11.70
2017-04-06T10:16:04.610Z,11.70
2017-04-06T10:17:03.657Z,11.70
2017-04-06T10:18:02.664Z,11.70
2017-04-06T10:19:01.716Z,11.70
2017-04-06T10:19:59.957Z,11.70
2017-04-06T10:20:58.200Z,11.80
2017-04-06T10:21:56.753Z,11.90
2017-04-06T10:22:55.072Z,12.10
2017-04-06T10:23:54.224Z,12.20
2017-04-06T10:24:52.508Z,12.30
2017-04-06T10:25:50.796Z,12.40
2017-04-06T10:26:49.061Z,12.50
2017-04-06T10:27:48.299Z,12.70
2017-04-06T10:28:46.696Z,12.80
2017-04-06T10:29:45.022Z,13.00
2017-04-06T10:30:44.160Z,13.00
2017-04-06T10:31:43.268Z,13.00
2017-04-06T10:32:41.688Z,13.00
2017-04-06T10:33:40.140Z,13.00
2017-04-06T10:34:38.508Z,13.00
2017-04-06T10:35:37.049Z,13.00
2017-04-06T10:36:35.413Z,13.00
2017-04-06T10:37:33.806Z,13.10
2017-04-06T10:38:33.329Z,13.10
2017-04-06T10:39:31.740Z,13.30
2017-04-06T10:40:30.159Z,13.40
2017-04-06T10:41:28.666Z,13.40
2017-04-06T10:42:27.813Z,13.50
2017-04-06T10:43:27.068Z,13.60
2017-04-06T10:44:25.477Z,13.70
2017-04-06T10:45:24.633Z,13.70
2017-04-06T10:46:23.025Z,13.80
2017-04-06T10:47:22.265Z,13.90
2017-04-06T10:48:20.642Z,14.00
2017-04-06T10:49:18.994Z,14.10
2017-04-06T10:50:17.392Z,14.20
2017-04-06T10:51:15.779Z,14.20
2017-04-06T10:52:14.117Z,14.30
2017-04-06T10:53:12.764Z,14.40
2017-04-06T10:54:11.072Z,14.40
2017-04-06T10:55:09.445Z,14.50
2017-04-06T10:56:08.532Z,14.50
2017-04-06T10:57:06.932Z,14.40
2017-04-06T10:58:05.302Z,14.40
2017-04-06T10:59:03.629Z,14.30
2017-04-06T11:00:02.022Z,14.20
2017-04-06T11:01:00.376Z,14.20
2017-04-06T11:01:58.971Z,14.20
2017-04-06T11:02:57.439Z,14.20
2017-04-06T11:03:55.768Z,14.20
2017-04-06T11:04:54.156Z,14.20
2017-04-06T11:05:52.496Z,14.20
2017-04-06T11:06:50.928Z,14.10
2017-04-06T11:07:49.408Z,14.00
2017-04-06T11:08:47.757Z,14.00
2017-04-06T11:09:46.177Z,13.90
2017-04-06T11:10:44.497Z,13.80
2017-04-06T11:11:42.825Z,13.80
2017-04-06T11:12:41.937Z,13.70
2017-04-06T11:13:41.029Z,13.70
2017-04-06T11:14:40.162Z,13.70
2017-04-06T11:15:38.535Z,13.70
2017-04-06T11:16:36.873Z,13.70
2017-04-06T11:17:35.934Z,13.70
2017-04-06T11:18:34.973Z,13.60
2017-04-06T11:19:33.293Z,13.60
2017-04-06T11:20:32.323Z,13.70
2017-04-06T11:21:30.622Z,13.70
2017-04-06T11:22:29.696Z,13.70
2017-04-06T11:23:27.973Z,13.80
2017-04-06T11:24:27.130Z,13.90
2017-04-06T11:25:25.512Z,13.90
2017-04-06T11:26:23.837Z,14.00
2017-04-06T11:27:22.166Z,14.00
2017-04-06T11:28:21.312Z,14.00
2017-04-06T11:29:19.648Z,14.00
2017-04-06T11:30:18.017Z,14.00
2017-04-06T11:31:16.408Z,13.90
2017-04-06T11:32:15.439Z,13.90
2017-04-06T11:33:13.752Z,13.90
2017-04-06T11:34:12.068Z,14.00
2017-04-06T11:35:10.348Z,14.00
2017-04-06T11:36:09.495Z,14.10
2017-04-06T11:37:08.197Z,14.10
2017-04-06T11:38:06.521Z,14.20
2017-04-06T11:39:05.613Z,14.20
2017-04-06T11:40:03.967Z,14.30
2017-04-06T11:41:02.975Z,14.30
2017-04-06T11:42:01.284Z,14.30
2017-04-06T11:43:00.369Z,14.30
2017-04-06T11:43:59.437Z,14.30
2017-04-06T11:44:57.786Z,14.30
2017-04-06T11:45:56.056Z,14.40
2017-04-06T11:46:54.360Z,14.40
2017-04-06T11:47:53.420Z,14.40
2017-04-06T11:48:51.740Z,14.50
2017-04-06T11:49:50.849Z,14.50
2017-04-06T11:50:49.152Z,14.50
2017-04-06T11:51:47.436Z,14.60
2017-04-06T11:52:44.968Z,14.60
2017-04-06T11:53:43.293Z,14.70
2017-04-06T11:54:42.481Z,14.70
2017-04-06T11:55:40.788Z,14.70
2017-04-06T11:56:39.113Z,14.70
2017-04-06T11:57:37.435Z,14.70
2017-04-06T11:58:36.673Z,14.60
2017-04-06T11:59:34.992Z,14.70
2017-04-06T12:00:34.035Z,14.70
2017-04-06T12:01:32.366Z,14.80
2017-04-06T12:03:29.709Z,14.90
2017-04-06T12:04:27.993Z,14.90
2017-04-06T12:05:26.333Z,15.00
2017-04-06T12:06:25.376Z,14.90
2017-04-06T12:07:23.684Z,14.90
2017-04-06T12:08:22.040Z,14.90
2017-04-06T12:09:21.063Z,14.80
2017-04-06T12:10:19.353Z,14.80
2017-04-06T12:11:17.896Z,14.80
2017-04-06T12:12:16.912Z,14.70
2017-04-06T12:13:15.888Z,14.70
2017-04-06T12:14:14.254Z,14.70
2017-04-06T12:15:12.554Z,14.70
2017-04-06T12:16:10.932Z,14.80
2017-04-06T12:17:09.956Z,14.80
2017-04-06T12:18:08.344Z,14.90
2017-04-06T12:19:06.622Z,15.00
2017-04-06T12:20:04.892Z,15.00
2017-04-06T12:21:03.148Z,15.10
2017-04-06T12:22:01.417Z,15.10
2017-04-06T12:23:00.064Z,15.20
2017-04-06T12:23:58.344Z,15.20
2017-04-06T12:24:56.616Z,15.20
2017-04-06T12:25:54.880Z,15.30
2017-04-06T12:26:53.128Z,15.30
2017-04-06T12:27:51.392Z,15.30
2017-04-06T12:28:50.421Z,15.40
2017-04-06T12:29:48.660Z,15.40
2017-04-06T12:30:46.960Z,15.50
2017-04-06T12:31:45.229Z,15.50
2017-04-06T12:32:43.496Z,15.40
2017-04-06T12:33:41.793Z,15.50
2017-04-06T12:34:40.037Z,15.40
2017-04-06T12:35:38.320Z,15.40
2017-04-06T12:36:36.569Z,15.50
2017-04-06T12:37:34.825Z,15.50
2017-04-06T12:38:33.080Z,15.50
2017-04-06T12:39:31.364Z,15.50
2017-04-06T12:40:29.681Z,15.60
2017-04-06T12:41:28.668Z,15.60
2017-04-06T12:42:26.965Z,15.60
2017-04-06T12:43:25.879Z,15.60
2017-04-06T12:44:24.916Z,15.60
2017-04-06T12:45:23.349Z,15.70
2017-04-06T12:46:22.400Z,15.80
2017-04-06T12:47:20.762Z,15.80
2017-04-06T12:48:19.121Z,15.80
2017-04-06T12:49:17.403Z,15.80
2017-04-06T12:50:15.665Z,15.90
2017-04-06T12:51:14.292Z,15.90
2017-04-06T12:52:13.708Z,15.90